首页
METAR-TAF:

METAR-TAF

机场 :

清莱国际机场

清萊, 泰国

纬度: 19-57-08N, 经度: 099-52-59E, 海拔: 390米

当前天气观测

该预报发布于20分钟前的05:00 UTC
风速7节,风向
温度 31°C
湿度 66%
气压 1007 hPa
能见度10公里或以上
多云层高于2500英尺

METAR: VTCT 280500Z 17007KT 9999 BKN025 31/24 Q1007 NOSIG

时间: 12:20 (05:20 UTC)

预报

该预报发布于6小时和20分钟前的23:00 UTC
预报有效从28日的 00点(UTC)到 29日的 06点(UTC)
风速5节,风向
能见度10公里或以上
散云层高于3500英尺
短暂存在
从 28日的 08点(UTC)到 28日的 14点(UTC)
风速15节,风向西转西南
能見度: 4000
少量云层高于2000英尺, 积雨云.
多云层高于3500英尺
雷暴, 雨
成为
从 28日的 10点(UTC)到 28日的 12点(UTC)
风速5节,风向西转西南
短暂存在
从 28日的 16点(UTC)到 28日的 20点(UTC)
少量云层高于2000英尺, 积雨云.
多云层高于3500英尺
雷暴, 小雨
成为
从 28日的 22点(UTC)到 28日的 24点(UTC)
风速5节,风向南转南东

TAF: VTCT 272300Z 2800/2906 17005KT 9999 SCT035 TEMPO 2808/2814 25015KT 4000 TSRA FEW020CB BKN035 BECMG 2810/2812 24005KT TEMPO 2816/2820 -TSRA FEW020CB BKN035 BECMG 2822/2824 16005KT

超过4000个机场的气象观测和天气预报(METAR&TAF报告)。

可查询的气象台以黄色和红色小点在地图上表示。

将鼠标移到小点上方,可查看气象台名称。

然后点击查看天气观测和预报。

如需切换地图:点击带黑十字的绿色按钮放大地图;点击带横线的绿色按钮缩小地图;或者点击绿色箭头查看邻近地区的地图。


METAR-TAF: